Terminal Aerodrome Forecast
Issued by NWS Goodland, KS

Home | Current Version | Previous Version | Text Only | Print | Product List | Glossary On
Versions: 1 2 3 4 5 6 7 8 9 10 11 12 13 14 15 16 17 18 19 20
555
FTUS43 KGLD 241720
TAFGLD
TAF
KGLD 241720Z 2418/2518 07012G20KT P6SM SCT250
     FM250000 09011KT P6SM BKN050
      TEMPO 2500/2504 VRB20G35KT 5SM TSRA BKN025CB
     FM250500 09006KT P6SM BKN120
     FM251000 12005KT P6SM BKN025
     FM251500 11011KT P6SM SCT030=

USA.gov is the U.S. government's official web portal to all federal, state and local government web resources and services.